Terminal Aerodrome Forecast
Issued by NWS San Angelo, TX

Home | Current Version | Previous Version | Text Only | Print | Product List | Glossary On
Versions: 1 2 3 4 5 6 7 8 9 10 11 12 13 14 15
000
FTUS44 KSJT 311730
TAFSJT
TAF
KSJT 311730Z 3118/0118 VRB05KT P6SM FEW080
     FM312000 08010KT P6SM SCT100
     FM010300 11006KT P6SM FEW150=

USA.gov is the U.S. government's official web portal to all federal, state and local government web resources and services.